sensor_id;sensor_type;location;lat;lon;timestamp;temperature;humidity
13458;DHT22;6801;53.018;11.560;2024-02-21T00:01:57;9.00;83.90
13458;DHT22;6801;53.018;11.560;2024-02-21T00:04:24;9.00;83.90
13458;DHT22;6801;53.018;11.560;2024-02-21T00:06:51;9.00;83.90
13458;DHT22;6801;53.018;11.560;2024-02-21T00:09:18;9.00;83.90
13458;DHT22;6801;53.018;11.560;2024-02-21T00:11:45;9.10;83.90
13458;DHT22;6801;53.018;11.560;2024-02-21T00:14:13;9.10;83.90
13458;DHT22;6801;53.018;11.560;2024-02-21T00:16:41;9.10;83.90
13458;DHT22;6801;53.018;11.560;2024-02-21T00:19:08;9.10;83.90
13458;DHT22;6801;53.018;11.560;2024-02-21T00:21:35;9.10;84.00
13458;DHT22;6801;53.018;11.560;2024-02-21T00:24:02;9.10;83.90
13458;DHT22;6801;53.018;11.560;2024-02-21T00:26:29;9.10;84.00
13458;DHT22;6801;53.018;11.560;2024-02-21T00:28:56;9.10;84.10
13458;DHT22;6801;53.018;11.560;2024-02-21T00:31:23;9.10;84.10
13458;DHT22;6801;53.018;11.560;2024-02-21T00:33:51;9.10;84.10
13458;DHT22;6801;53.018;11.560;2024-02-21T00:36:18;9.10;84.20
13458;DHT22;6801;53.018;11.560;2024-02-21T00:38:45;9.10;84.20
13458;DHT22;6801;53.018;11.560;2024-02-21T00:41:12;9.10;84.20
13458;DHT22;6801;53.018;11.560;2024-02-21T00:43:39;9.10;84.30
13458;DHT22;6801;53.018;11.560;2024-02-21T00:46:06;9.10;84.40
13458;DHT22;6801;53.018;11.560;2024-02-21T00:48:33;9.10;84.50
13458;DHT22;6801;53.018;11.560;2024-02-21T00:51:02;9.10;84.50
13458;DHT22;6801;53.018;11.560;2024-02-21T00:53:29;9.10;84.50
13458;DHT22;6801;53.018;11.560;2024-02-21T00:55:56;9.10;84.60
13458;DHT22;6801;53.018;11.560;2024-02-21T00:58:23;9.10;84.60
13458;DHT22;6801;53.018;11.560;2024-02-21T01:00:50;9.10;84.80
13458;DHT22;6801;53.018;11.560;2024-02-21T01:03:17;9.10;84.80
13458;DHT22;6801;53.018;11.560;2024-02-21T01:05:44;9.10;84.90
13458;DHT22;6801;53.018;11.560;2024-02-21T01:08:12;9.10;84.90
13458;DHT22;6801;53.018;11.560;2024-02-21T01:10:39;9.10;85.00
13458;DHT22;6801;53.018;11.560;2024-02-21T01:13:06;9.10;85.00
13458;DHT22;6801;53.018;11.560;2024-02-21T01:15:33;9.10;85.10
13458;DHT22;6801;53.018;11.560;2024-02-21T01:18:01;9.10;85.20
13458;DHT22;6801;53.018;11.560;2024-02-21T01:20:28;9.10;85.30
13458;DHT22;6801;53.018;11.560;2024-02-21T01:22:55;9.10;85.20
13458;DHT22;6801;53.018;11.560;2024-02-21T01:25:23;9.00;85.20
13458;DHT22;6801;53.018;11.560;2024-02-21T01:27:50;9.10;85.30
13458;DHT22;6801;53.018;11.560;2024-02-21T01:30:17;9.10;85.30
13458;DHT22;6801;53.018;11.560;2024-02-21T01:32:44;9.10;85.30
13458;DHT22;6801;53.018;11.560;2024-02-21T01:35:11;9.10;85.30
13458;DHT22;6801;53.018;11.560;2024-02-21T01:37:38;9.10;85.30
13458;DHT22;6801;53.018;11.560;2024-02-21T01:40:06;9.10;85.40
13458;DHT22;6801;53.018;11.560;2024-02-21T01:42:38;9.10;85.50
13458;DHT22;6801;53.018;11.560;2024-02-21T01:45:05;9.00;85.40
13458;DHT22;6801;53.018;11.560;2024-02-21T01:47:32;9.10;85.40
13458;DHT22;6801;53.018;11.560;2024-02-21T01:50:00;9.10;85.50
13458;DHT22;6801;53.018;11.560;2024-02-21T01:52:28;9.10;85.50
13458;DHT22;6801;53.018;11.560;2024-02-21T01:54:55;9.10;85.60
13458;DHT22;6801;53.018;11.560;2024-02-21T01:57:24;9.10;85.60
13458;DHT22;6801;53.018;11.560;2024-02-21T01:59:53;9.10;85.60
13458;DHT22;6801;53.018;11.560;2024-02-21T02:02:20;9.10;85.60
13458;DHT22;6801;53.018;11.560;2024-02-21T02:04:48;9.10;85.60
13458;DHT22;6801;53.018;11.560;2024-02-21T02:07:15;9.10;85.70
13458;DHT22;6801;53.018;11.560;2024-02-21T02:09:43;9.10;85.70
13458;DHT22;6801;53.018;11.560;2024-02-21T02:12:10;9.00;85.80
13458;DHT22;6801;53.018;11.560;2024-02-21T02:14:37;9.10;86.00
13458;DHT22;6801;53.018;11.560;2024-02-21T02:17:05;9.10;86.10
13458;DHT22;6801;53.018;11.560;2024-02-21T02:19:32;9.10;86.00
13458;DHT22;6801;53.018;11.560;2024-02-21T02:22:04;9.10;86.00
13458;DHT22;6801;53.018;11.560;2024-02-21T02:24:34;9.00;85.90
13458;DHT22;6801;53.018;11.560;2024-02-21T02:27:01;9.10;85.90
13458;DHT22;6801;53.018;11.560;2024-02-21T02:29:31;9.00;86.00
13458;DHT22;6801;53.018;11.560;2024-02-21T02:31:58;9.10;86.00
13458;DHT22;6801;53.018;11.560;2024-02-21T02:34:25;9.10;85.90
13458;DHT22;6801;53.018;11.560;2024-02-21T02:36:52;9.10;85.90
13458;DHT22;6801;53.018;11.560;2024-02-21T02:39:20;9.10;86.00
13458;DHT22;6801;53.018;11.560;2024-02-21T02:41:48;9.10;86.10
13458;DHT22;6801;53.018;11.560;2024-02-21T02:44:15;9.10;86.00
13458;DHT22;6801;53.018;11.560;2024-02-21T02:46:42;9.10;86.00
13458;DHT22;6801;53.018;11.560;2024-02-21T02:49:09;9.10;86.10
13458;DHT22;6801;53.018;11.560;2024-02-21T02:51:36;9.10;86.10
13458;DHT22;6801;53.018;11.560;2024-02-21T02:54:03;9.10;86.00
13458;DHT22;6801;53.018;11.560;2024-02-21T02:56:30;9.10;86.00
13458;DHT22;6801;53.018;11.560;2024-02-21T02:58:58;9.10;86.10
13458;DHT22;6801;53.018;11.560;2024-02-21T03:01:26;9.10;86.10
13458;DHT22;6801;53.018;11.560;2024-02-21T03:03:53;9.10;86.10
13458;DHT22;6801;53.018;11.560;2024-02-21T03:06:20;9.10;86.00
13458;DHT22;6801;53.018;11.560;2024-02-21T03:08:47;9.10;86.00
13458;DHT22;6801;53.018;11.560;2024-02-21T03:11:14;9.10;86.00
13458;DHT22;6801;53.018;11.560;2024-02-21T03:13:41;9.10;85.90
13458;DHT22;6801;53.018;11.560;2024-02-21T03:16:10;9.10;86.00
13458;DHT22;6801;53.018;11.560;2024-02-21T03:18:37;9.10;86.10
13458;DHT22;6801;53.018;11.560;2024-02-21T03:21:04;9.10;86.10
13458;DHT22;6801;53.018;11.560;2024-02-21T03:23:31;9.10;86.10
13458;DHT22;6801;53.018;11.560;2024-02-21T03:25:58;9.10;86.10
13458;DHT22;6801;53.018;11.560;2024-02-21T03:28:25;9.10;86.20
13458;DHT22;6801;53.018;11.560;2024-02-21T03:30:51;9.10;86.10
13458;DHT22;6801;53.018;11.560;2024-02-21T03:33:20;9.10;86.00
13458;DHT22;6801;53.018;11.560;2024-02-21T03:35:49;9.10;86.10
13458;DHT22;6801;53.018;11.560;2024-02-21T03:38:16;9.10;86.20
13458;DHT22;6801;53.018;11.560;2024-02-21T03:40:43;9.10;86.10
13458;DHT22;6801;53.018;11.560;2024-02-21T03:43:10;9.10;86.20
13458;DHT22;6801;53.018;11.560;2024-02-21T03:45:36;9.10;86.30
13458;DHT22;6801;53.018;11.560;2024-02-21T03:48:04;9.10;86.50
13458;DHT22;6801;53.018;11.560;2024-02-21T03:50:33;9.00;86.50
13458;DHT22;6801;53.018;11.560;2024-02-21T03:53:00;9.00;86.50
13458;DHT22;6801;53.018;11.560;2024-02-21T03:55:27;9.10;86.40
13458;DHT22;6801;53.018;11.560;2024-02-21T03:57:54;9.10;86.40
13458;DHT22;6801;53.018;11.560;2024-02-21T04:00:21;9.10;86.30
13458;DHT22;6801;53.018;11.560;2024-02-21T04:02:49;9.10;86.10
13458;DHT22;6801;53.018;11.560;2024-02-21T04:05:16;9.10;86.10
13458;DHT22;6801;53.018;11.560;2024-02-21T04:07:44;9.10;86.10
13458;DHT22;6801;53.018;11.560;2024-02-21T04:10:12;9.10;86.20
13458;DHT22;6801;53.018;11.560;2024-02-21T04:12:39;9.10;86.30
13458;DHT22;6801;53.018;11.560;2024-02-21T04:15:06;9.10;86.40
13458;DHT22;6801;53.018;11.560;2024-02-21T04:17:33;9.10;86.40
13458;DHT22;6801;53.018;11.560;2024-02-21T04:20:02;9.10;86.20
13458;DHT22;6801;53.018;11.560;2024-02-21T04:22:30;9.10;86.20
13458;DHT22;6801;53.018;11.560;2024-02-21T04:24:59;9.10;86.30
13458;DHT22;6801;53.018;11.560;2024-02-21T04:27:27;9.10;86.20
13458;DHT22;6801;53.018;11.560;2024-02-21T04:29:54;9.10;86.30
13458;DHT22;6801;53.018;11.560;2024-02-21T04:32:21;9.20;86.30
13458;DHT22;6801;53.018;11.560;2024-02-21T04:34:48;9.10;86.30
13458;DHT22;6801;53.018;11.560;2024-02-21T04:37:15;9.10;86.40
13458;DHT22;6801;53.018;11.560;2024-02-21T04:39:42;9.10;86.40
13458;DHT22;6801;53.018;11.560;2024-02-21T04:42:10;9.10;86.30
13458;DHT22;6801;53.018;11.560;2024-02-21T04:44:38;9.10;86.40
13458;DHT22;6801;53.018;11.560;2024-02-21T04:47:05;9.10;86.40
13458;DHT22;6801;53.018;11.560;2024-02-21T04:49:32;9.20;86.30
13458;DHT22;6801;53.018;11.560;2024-02-21T04:51:59;9.10;86.30
13458;DHT22;6801;53.018;11.560;2024-02-21T04:54:26;9.10;86.30
13458;DHT22;6801;53.018;11.560;2024-02-21T04:56:53;9.10;86.30
13458;DHT22;6801;53.018;11.560;2024-02-21T04:59:22;9.20;86.30
13458;DHT22;6801;53.018;11.560;2024-02-21T05:01:49;9.20;86.30
13458;DHT22;6801;53.018;11.560;2024-02-21T05:04:16;9.20;86.20
13458;DHT22;6801;53.018;11.560;2024-02-21T05:06:42;9.20;86.10
13458;DHT22;6801;53.018;11.560;2024-02-21T05:09:10;9.20;86.20
13458;DHT22;6801;53.018;11.560;2024-02-21T05:11:37;9.20;86.20
13458;DHT22;6801;53.018;11.560;2024-02-21T05:14:04;9.20;86.00
13458;DHT22;6801;53.018;11.560;2024-02-21T05:16:32;9.20;86.10
13458;DHT22;6801;53.018;11.560;2024-02-21T05:18:59;9.20;86.10
13458;DHT22;6801;53.018;11.560;2024-02-21T05:21:26;9.20;86.10
13458;DHT22;6801;53.018;11.560;2024-02-21T05:23:54;9.20;86.10
13458;DHT22;6801;53.018;11.560;2024-02-21T05:26:21;9.20;85.90
13458;DHT22;6801;53.018;11.560;2024-02-21T05:28:48;9.10;85.90
13458;DHT22;6801;53.018;11.560;2024-02-21T05:31:15;9.20;86.00
13458;DHT22;6801;53.018;11.560;2024-02-21T05:33:44;9.10;86.10
13458;DHT22;6801;53.018;11.560;2024-02-21T05:36:11;9.10;86.10
13458;DHT22;6801;53.018;11.560;2024-02-21T05:38:38;9.20;86.40
13458;DHT22;6801;53.018;11.560;2024-02-21T05:41:06;9.20;86.20
13458;DHT22;6801;53.018;11.560;2024-02-21T05:43:33;9.20;86.20
13458;DHT22;6801;53.018;11.560;2024-02-21T05:46:00;9.20;86.10
13458;DHT22;6801;53.018;11.560;2024-02-21T05:48:27;9.20;86.20
13458;DHT22;6801;53.018;11.560;2024-02-21T05:50:55;9.20;86.20
13458;DHT22;6801;53.018;11.560;2024-02-21T05:53:22;9.20;86.20
13458;DHT22;6801;53.018;11.560;2024-02-21T05:55:49;9.30;86.00
13458;DHT22;6801;53.018;11.560;2024-02-21T05:58:16;9.30;86.10
13458;DHT22;6801;53.018;11.560;2024-02-21T06:00:43;9.30;85.90
13458;DHT22;6801;53.018;11.560;2024-02-21T06:03:10;9.30;86.00
13458;DHT22;6801;53.018;11.560;2024-02-21T06:05:37;9.30;86.00
13458;DHT22;6801;53.018;11.560;2024-02-21T06:08:15;9.20;86.00
13458;DHT22;6801;53.018;11.560;2024-02-21T06:10:42;9.30;85.90
13458;DHT22;6801;53.018;11.560;2024-02-21T06:13:09;9.30;86.00
13458;DHT22;6801;53.018;11.560;2024-02-21T06:15:36;9.30;85.90
13458;DHT22;6801;53.018;11.560;2024-02-21T06:18:03;9.30;86.00
13458;DHT22;6801;53.018;11.560;2024-02-21T06:20:30;9.30;85.90
13458;DHT22;6801;53.018;11.560;2024-02-21T06:22:57;9.30;86.00
13458;DHT22;6801;53.018;11.560;2024-02-21T06:45:12;9.30;86.10
13458;DHT22;6801;53.018;11.560;2024-02-21T06:47:39;9.30;86.10
13458;DHT22;6801;53.018;11.560;2024-02-21T06:50:07;9.30;86.10
13458;DHT22;6801;53.018;11.560;2024-02-21T06:52:35;9.30;86.20
13458;DHT22;6801;53.018;11.560;2024-02-21T06:58:23;9.30;86.10
13458;DHT22;6801;53.018;11.560;2024-02-21T07:00:52;9.30;86.30
13458;DHT22;6801;53.018;11.560;2024-02-21T07:03:19;9.30;86.20
13458;DHT22;6801;53.018;11.560;2024-02-21T07:05:46;9.30;86.20
13458;DHT22;6801;53.018;11.560;2024-02-21T07:08:13;9.30;86.20
13458;DHT22;6801;53.018;11.560;2024-02-21T07:10:40;9.30;86.20
13458;DHT22;6801;53.018;11.560;2024-02-21T07:13:07;9.30;86.20
13458;DHT22;6801;53.018;11.560;2024-02-21T07:15:34;9.30;86.20
13458;DHT22;6801;53.018;11.560;2024-02-21T07:18:04;9.30;86.20
13458;DHT22;6801;53.018;11.560;2024-02-21T07:20:31;9.30;86.20
13458;DHT22;6801;53.018;11.560;2024-02-21T07:22:59;9.30;86.20
13458;DHT22;6801;53.018;11.560;2024-02-21T07:25:26;9.30;86.40
13458;DHT22;6801;53.018;11.560;2024-02-21T07:27:53;9.30;86.40
13458;DHT22;6801;53.018;11.560;2024-02-21T07:30:20;9.30;86.40
13458;DHT22;6801;53.018;11.560;2024-02-21T07:32:49;9.30;86.40
13458;DHT22;6801;53.018;11.560;2024-02-21T07:35:18;9.30;86.40
13458;DHT22;6801;53.018;11.560;2024-02-21T07:37:45;9.30;86.50
13458;DHT22;6801;53.018;11.560;2024-02-21T07:40:13;9.30;86.50
13458;DHT22;6801;53.018;11.560;2024-02-21T07:42:40;9.30;86.50
13458;DHT22;6801;53.018;11.560;2024-02-21T07:45:07;9.30;86.50
13458;DHT22;6801;53.018;11.560;2024-02-21T07:47:34;9.40;86.40
13458;DHT22;6801;53.018;11.560;2024-02-21T07:50:02;9.30;86.50
13458;DHT22;6801;53.018;11.560;2024-02-21T07:52:30;9.40;86.50
13458;DHT22;6801;53.018;11.560;2024-02-21T07:54:57;9.40;86.60
13458;DHT22;6801;53.018;11.560;2024-02-21T07:57:24;9.40;86.60
13458;DHT22;6801;53.018;11.560;2024-02-21T07:59:51;9.40;86.60
13458;DHT22;6801;53.018;11.560;2024-02-21T08:02:18;9.40;86.60
13458;DHT22;6801;53.018;11.560;2024-02-21T08:04:45;9.40;86.60
13458;DHT22;6801;53.018;11.560;2024-02-21T08:07:12;9.40;86.70
13458;DHT22;6801;53.018;11.560;2024-02-21T08:09:41;9.40;86.70
13458;DHT22;6801;53.018;11.560;2024-02-21T08:12:09;9.40;86.70
13458;DHT22;6801;53.018;11.560;2024-02-21T08:14:38;9.40;86.70
13458;DHT22;6801;53.018;11.560;2024-02-21T08:17:05;9.40;86.70
13458;DHT22;6801;53.018;11.560;2024-02-21T08:19:32;9.50;86.70
13458;DHT22;6801;53.018;11.560;2024-02-21T08:21:59;9.40;86.70
13458;DHT22;6801;53.018;11.560;2024-02-21T08:24:26;9.50;86.80
13458;DHT22;6801;53.018;11.560;2024-02-21T08:26:54;9.40;86.70
13458;DHT22;6801;53.018;11.560;2024-02-21T08:29:21;9.50;86.70
13458;DHT22;6801;53.018;11.560;2024-02-21T08:31:49;9.50;86.70
13458;DHT22;6801;53.018;11.560;2024-02-21T08:34:16;9.50;86.80
13458;DHT22;6801;53.018;11.560;2024-02-21T08:36:44;9.50;86.80
13458;DHT22;6801;53.018;11.560;2024-02-21T08:39:11;9.50;86.90
13458;DHT22;6801;53.018;11.560;2024-02-21T08:41:42;9.50;86.80
13458;DHT22;6801;53.018;11.560;2024-02-21T08:44:10;9.50;86.90
13458;DHT22;6801;53.018;11.560;2024-02-21T08:46:37;9.50;86.90
13458;DHT22;6801;53.018;11.560;2024-02-21T08:49:05;9.60;86.80
13458;DHT22;6801;53.018;11.560;2024-02-21T08:51:33;9.60;86.70
13458;DHT22;6801;53.018;11.560;2024-02-21T08:54:01;9.60;86.60
13458;DHT22;6801;53.018;11.560;2024-02-21T08:56:29;9.60;86.80
13458;DHT22;6801;53.018;11.560;2024-02-21T08:58:56;9.60;86.70
13458;DHT22;6801;53.018;11.560;2024-02-21T09:01:26;9.70;86.60
13458;DHT22;6801;53.018;11.560;2024-02-21T09:03:53;9.70;86.60
13458;DHT22;6801;53.018;11.560;2024-02-21T09:06:22;9.70;86.50
13458;DHT22;6801;53.018;11.560;2024-02-21T09:08:49;9.80;86.50
13458;DHT22;6801;53.018;11.560;2024-02-21T09:11:16;9.80;86.40
13458;DHT22;6801;53.018;11.560;2024-02-21T09:13:43;9.80;86.20
13458;DHT22;6801;53.018;11.560;2024-02-21T09:16:10;9.80;86.30
13458;DHT22;6801;53.018;11.560;2024-02-21T09:18:38;9.80;86.30
13458;DHT22;6801;53.018;11.560;2024-02-21T09:21:05;9.80;86.40
13458;DHT22;6801;53.018;11.560;2024-02-21T09:23:33;9.90;86.40
13458;DHT22;6801;53.018;11.560;2024-02-21T09:26:00;9.90;86.40
13458;DHT22;6801;53.018;11.560;2024-02-21T09:28:29;9.90;86.40
13458;DHT22;6801;53.018;11.560;2024-02-21T09:30:56;9.90;86.40
13458;DHT22;6801;53.018;11.560;2024-02-21T09:33:23;9.90;86.30
13458;DHT22;6801;53.018;11.560;2024-02-21T09:35:51;9.90;86.30
13458;DHT22;6801;53.018;11.560;2024-02-21T09:38:18;9.90;86.30
13458;DHT22;6801;53.018;11.560;2024-02-21T09:40:45;9.90;86.30
13458;DHT22;6801;53.018;11.560;2024-02-21T09:43:17;9.90;86.30
13458;DHT22;6801;53.018;11.560;2024-02-21T09:45:46;9.90;86.40
13458;DHT22;6801;53.018;11.560;2024-02-21T09:48:25;9.90;86.40
13458;DHT22;6801;53.018;11.560;2024-02-21T09:50:59;10.00;86.40
13458;DHT22;6801;53.018;11.560;2024-02-21T09:53:27;10.00;86.30
13458;DHT22;6801;53.018;11.560;2024-02-21T09:55:55;10.00;86.30
13458;DHT22;6801;53.018;11.560;2024-02-21T09:58:23;10.00;86.20
13458;DHT22;6801;53.018;11.560;2024-02-21T10:00:53;10.00;86.30
13458;DHT22;6801;53.018;11.560;2024-02-21T10:03:20;10.00;86.30
13458;DHT22;6801;53.018;11.560;2024-02-21T10:05:48;10.00;86.20
13458;DHT22;6801;53.018;11.560;2024-02-21T10:08:18;10.00;86.20
13458;DHT22;6801;53.018;11.560;2024-02-21T10:10:46;10.00;86.20
13458;DHT22;6801;53.018;11.560;2024-02-21T10:13:24;10.00;86.20
13458;DHT22;6801;53.018;11.560;2024-02-21T10:16:04;10.00;86.20
13458;DHT22;6801;53.018;11.560;2024-02-21T10:18:31;10.00;86.10
13458;DHT22;6801;53.018;11.560;2024-02-21T10:21:03;10.00;86.10
13458;DHT22;6801;53.018;11.560;2024-02-21T10:23:42;10.00;86.10
13458;DHT22;6801;53.018;11.560;2024-02-21T10:26:10;10.10;86.10
13458;DHT22;6801;53.018;11.560;2024-02-21T10:28:37;10.10;85.90
13458;DHT22;6801;53.018;11.560;2024-02-21T10:31:08;10.20;85.80
13458;DHT22;6801;53.018;11.560;2024-02-21T10:33:35;10.20;85.80
13458;DHT22;6801;53.018;11.560;2024-02-21T10:36:07;10.20;85.80
13458;DHT22;6801;53.018;11.560;2024-02-21T10:38:35;10.10;85.90
13458;DHT22;6801;53.018;11.560;2024-02-21T10:41:05;10.20;85.90
13458;DHT22;6801;53.018;11.560;2024-02-21T10:43:38;10.20;85.90
13458;DHT22;6801;53.018;11.560;2024-02-21T10:46:06;10.20;85.80
13458;DHT22;6801;53.018;11.560;2024-02-21T10:48:41;10.20;85.80
13458;DHT22;6801;53.018;11.560;2024-02-21T10:51:15;10.20;85.80
13458;DHT22;6801;53.018;11.560;2024-02-21T10:53:47;10.30;85.80
13458;DHT22;6801;53.018;11.560;2024-02-21T10:56:22;10.30;85.70
13458;DHT22;6801;53.018;11.560;2024-02-21T10:58:53;10.20;85.60
13458;DHT22;6801;53.018;11.560;2024-02-21T11:01:22;10.30;85.60
13458;DHT22;6801;53.018;11.560;2024-02-21T11:03:54;10.30;85.70
13458;DHT22;6801;53.018;11.560;2024-02-21T11:06:22;10.30;85.80
13458;DHT22;6801;53.018;11.560;2024-02-21T11:09:00;10.30;85.70
13458;DHT22;6801;53.018;11.560;2024-02-21T11:11:30;10.30;85.70
13458;DHT22;6801;53.018;11.560;2024-02-21T11:14:07;10.30;85.70
13458;DHT22;6801;53.018;11.560;2024-02-21T11:16:38;10.30;85.70
13458;DHT22;6801;53.018;11.560;2024-02-21T11:19:08;10.30;85.50
13458;DHT22;6801;53.018;11.560;2024-02-21T11:21:37;10.40;85.40
13458;DHT22;6801;53.018;11.560;2024-02-21T11:24:05;10.40;85.40
13458;DHT22;6801;53.018;11.560;2024-02-21T11:26:33;10.40;85.50
13458;DHT22;6801;53.018;11.560;2024-02-21T11:29:01;10.40;85.40
13458;DHT22;6801;53.018;11.560;2024-02-21T11:31:38;10.40;85.40
13458;DHT22;6801;53.018;11.560;2024-02-21T11:34:09;10.30;85.30
13458;DHT22;6801;53.018;11.560;2024-02-21T11:36:45;10.40;85.30
13458;DHT22;6801;53.018;11.560;2024-02-21T11:39:17;10.30;85.40
13458;DHT22;6801;53.018;11.560;2024-02-21T11:41:47;10.40;85.40
13458;DHT22;6801;53.018;11.560;2024-02-21T11:44:13;10.30;85.40
13458;DHT22;6801;53.018;11.560;2024-02-21T11:46:40;10.30;85.40
13458;DHT22;6801;53.018;11.560;2024-02-21T11:49:08;10.30;85.40
13458;DHT22;6801;53.018;11.560;2024-02-21T11:51:34;10.30;85.40
13458;DHT22;6801;53.018;11.560;2024-02-21T11:54:02;10.30;85.40
13458;DHT22;6801;53.018;11.560;2024-02-21T11:56:30;10.30;85.40
13458;DHT22;6801;53.018;11.560;2024-02-21T11:59:00;10.30;85.30
13458;DHT22;6801;53.018;11.560;2024-02-21T12:01:28;10.30;85.30
13458;DHT22;6801;53.018;11.560;2024-02-21T12:03:55;10.30;85.30
13458;DHT22;6801;53.018;11.560;2024-02-21T12:06:22;10.30;85.30
13458;DHT22;6801;53.018;11.560;2024-02-21T12:08:49;10.30;85.30
13458;DHT22;6801;53.018;11.560;2024-02-21T12:11:20;10.30;85.30
13458;DHT22;6801;53.018;11.560;2024-02-21T12:13:47;10.30;85.10
13458;DHT22;6801;53.018;11.560;2024-02-21T12:16:27;10.30;85.20
13458;DHT22;6801;53.018;11.560;2024-02-21T12:18:54;10.30;85.00
13458;DHT22;6801;53.018;11.560;2024-02-21T12:21:24;10.30;85.00
13458;DHT22;6801;53.018;11.560;2024-02-21T12:23:53;10.30;85.10
13458;DHT22;6801;53.018;11.560;2024-02-21T12:26:21;10.30;85.00
13458;DHT22;6801;53.018;11.560;2024-02-21T12:28:48;10.30;85.00
13458;DHT22;6801;53.018;11.560;2024-02-21T12:31:15;10.30;84.90
13458;DHT22;6801;53.018;11.560;2024-02-21T12:33:44;10.30;84.90
13458;DHT22;6801;53.018;11.560;2024-02-21T12:36:11;10.40;85.00
13458;DHT22;6801;53.018;11.560;2024-02-21T12:38:38;10.40;85.00
13458;DHT22;6801;53.018;11.560;2024-02-21T12:41:05;10.40;84.80
13458;DHT22;6801;53.018;11.560;2024-02-21T12:43:33;10.40;84.80
13458;DHT22;6801;53.018;11.560;2024-02-21T12:46:01;10.40;84.80
13458;DHT22;6801;53.018;11.560;2024-02-21T12:48:28;10.40;84.90
13458;DHT22;6801;53.018;11.560;2024-02-21T12:50:56;10.40;84.80
13458;DHT22;6801;53.018;11.560;2024-02-21T12:53:24;10.40;84.90
13458;DHT22;6801;53.018;11.560;2024-02-21T12:55:51;10.40;84.90
13458;DHT22;6801;53.018;11.560;2024-02-21T12:58:18;10.50;84.80
13458;DHT22;6801;53.018;11.560;2024-02-21T13:00:47;10.50;84.70
13458;DHT22;6801;53.018;11.560;2024-02-21T13:03:14;10.50;84.60
13458;DHT22;6801;53.018;11.560;2024-02-21T13:05:41;10.50;84.60
13458;DHT22;6801;53.018;11.560;2024-02-21T13:08:10;10.50;84.60
13458;DHT22;6801;53.018;11.560;2024-02-21T13:10:37;10.50;84.40
13458;DHT22;6801;53.018;11.560;2024-02-21T13:13:04;10.60;84.40
13458;DHT22;6801;53.018;11.560;2024-02-21T13:15:32;10.50;84.30
13458;DHT22;6801;53.018;11.560;2024-02-21T13:17:59;10.50;84.20
13458;DHT22;6801;53.018;11.560;2024-02-21T13:20:26;10.60;84.20
13458;DHT22;6801;53.018;11.560;2024-02-21T13:22:54;10.60;84.20
13458;DHT22;6801;53.018;11.560;2024-02-21T13:25:22;10.60;84.10
13458;DHT22;6801;53.018;11.560;2024-02-21T13:27:49;10.60;84.00
13458;DHT22;6801;53.018;11.560;2024-02-21T13:30:16;10.60;84.00
13458;DHT22;6801;53.018;11.560;2024-02-21T13:32:44;10.60;84.00
13458;DHT22;6801;53.018;11.560;2024-02-21T13:35:13;10.60;84.10
13458;DHT22;6801;53.018;11.560;2024-02-21T13:37:41;10.60;84.10
13458;DHT22;6801;53.018;11.560;2024-02-21T13:40:08;10.60;84.10
13458;DHT22;6801;53.018;11.560;2024-02-21T13:42:37;10.60;84.10
13458;DHT22;6801;53.018;11.560;2024-02-21T13:45:06;10.60;84.10
13458;DHT22;6801;53.018;11.560;2024-02-21T13:47:34;10.60;84.10
13458;DHT22;6801;53.018;11.560;2024-02-21T13:50:02;10.60;84.00
13458;DHT22;6801;53.018;11.560;2024-02-21T13:52:30;10.60;84.00
13458;DHT22;6801;53.018;11.560;2024-02-21T13:54:59;10.60;83.90
13458;DHT22;6801;53.018;11.560;2024-02-21T13:57:26;10.60;83.80
13458;DHT22;6801;53.018;11.560;2024-02-21T13:59:54;10.60;83.90
13458;DHT22;6801;53.018;11.560;2024-02-21T14:02:21;10.60;83.70
13458;DHT22;6801;53.018;11.560;2024-02-21T14:04:48;10.60;83.70
13458;DHT22;6801;53.018;11.560;2024-02-21T14:07:15;10.50;83.60
13458;DHT22;6801;53.018;11.560;2024-02-21T14:09:42;10.60;83.60
13458;DHT22;6801;53.018;11.560;2024-02-21T14:12:09;10.60;83.60
13458;DHT22;6801;53.018;11.560;2024-02-21T14:14:36;10.50;83.60
13458;DHT22;6801;53.018;11.560;2024-02-21T14:17:05;10.60;83.50
13458;DHT22;6801;53.018;11.560;2024-02-21T14:19:32;10.50;83.40
13458;DHT22;6801;53.018;11.560;2024-02-21T14:21:59;10.50;83.30
13458;DHT22;6801;53.018;11.560;2024-02-21T14:24:26;10.50;83.30
13458;DHT22;6801;53.018;11.560;2024-02-21T14:26:54;10.50;83.20
13458;DHT22;6801;53.018;11.560;2024-02-21T14:29:20;10.50;83.10
13458;DHT22;6801;53.018;11.560;2024-02-21T14:31:47;10.60;83.10
13458;DHT22;6801;53.018;11.560;2024-02-21T14:34:16;10.60;82.90
13458;DHT22;6801;53.018;11.560;2024-02-21T14:36:43;10.60;82.80
13458;DHT22;6801;53.018;11.560;2024-02-21T14:39:10;10.50;82.90
13458;DHT22;6801;53.018;11.560;2024-02-21T14:41:37;10.60;82.70
13458;DHT22;6801;53.018;11.560;2024-02-21T14:44:05;10.60;82.70
13458;DHT22;6801;53.018;11.560;2024-02-21T14:46:35;10.60;82.60
13458;DHT22;6801;53.018;11.560;2024-02-21T14:49:03;10.60;82.70
13458;DHT22;6801;53.018;11.560;2024-02-21T14:51:31;10.60;82.60
13458;DHT22;6801;53.018;11.560;2024-02-21T14:53:59;10.60;82.60
13458;DHT22;6801;53.018;11.560;2024-02-21T14:56:26;10.60;82.60
13458;DHT22;6801;53.018;11.560;2024-02-21T14:58:53;10.60;82.60
13458;DHT22;6801;53.018;11.560;2024-02-21T15:01:20;10.60;82.50
13458;DHT22;6801;53.018;11.560;2024-02-21T15:03:47;10.60;82.40
13458;DHT22;6801;53.018;11.560;2024-02-21T15:06:14;10.60;82.30
13458;DHT22;6801;53.018;11.560;2024-02-21T15:08:43;10.60;82.20
13458;DHT22;6801;53.018;11.560;2024-02-21T15:11:10;10.60;82.10
13458;DHT22;6801;53.018;11.560;2024-02-21T15:13:37;10.60;81.80
13458;DHT22;6801;53.018;11.560;2024-02-21T15:16:05;10.60;81.50
13458;DHT22;6801;53.018;11.560;2024-02-21T15:18:32;10.60;81.30
13458;DHT22;6801;53.018;11.560;2024-02-21T15:21:01;10.60;81.40
13458;DHT22;6801;53.018;11.560;2024-02-21T15:23:28;10.60;81.40
13458;DHT22;6801;53.018;11.560;2024-02-21T15:25:57;10.60;81.50
13458;DHT22;6801;53.018;11.560;2024-02-21T15:28:25;10.60;81.70
13458;DHT22;6801;53.018;11.560;2024-02-21T15:30:54;10.60;81.80
13458;DHT22;6801;53.018;11.560;2024-02-21T15:33:21;10.60;81.60
13458;DHT22;6801;53.018;11.560;2024-02-21T15:35:48;10.60;81.50
13458;DHT22;6801;53.018;11.560;2024-02-21T15:38:15;10.60;81.50
13458;DHT22;6801;53.018;11.560;2024-02-21T15:40:42;10.60;81.70
13458;DHT22;6801;53.018;11.560;2024-02-21T15:43:10;10.60;81.50
13458;DHT22;6801;53.018;11.560;2024-02-21T15:45:37;10.50;81.40
13458;DHT22;6801;53.018;11.560;2024-02-21T15:48:06;10.50;81.30
13458;DHT22;6801;53.018;11.560;2024-02-21T15:50:33;10.50;81.20
13458;DHT22;6801;53.018;11.560;2024-02-21T15:53:00;10.50;81.20
13458;DHT22;6801;53.018;11.560;2024-02-21T15:55:27;10.40;81.20
13458;DHT22;6801;53.018;11.560;2024-02-21T15:57:54;10.50;81.20
13458;DHT22;6801;53.018;11.560;2024-02-21T16:00:23;10.40;81.30
13458;DHT22;6801;53.018;11.560;2024-02-21T16:02:50;10.40;81.40
13458;DHT22;6801;53.018;11.560;2024-02-21T16:05:20;10.40;81.40
13458;DHT22;6801;53.018;11.560;2024-02-21T16:07:47;10.40;81.40